sensor_id;sensor_type;location;lat;lon;timestamp;P1;durP1;ratioP1;P2;durP2;ratioP2
39676;SDS011;27789;50.840;4.386;2022-10-16T01:31:36;4.68;;;1.65;;
39676;SDS011;27789;50.840;4.386;2022-10-16T01:34:06;25.20;;;8.15;;
39676;SDS011;27789;50.840;4.386;2022-10-16T01:36:38;22.92;;;8.48;;
39676;SDS011;27789;50.840;4.386;2022-10-16T01:39:10;6.07;;;2.47;;
39676;SDS011;27789;50.840;4.386;2022-10-16T01:41:38;3.03;;;2.00;;
39676;SDS011;27789;50.840;4.386;2022-10-16T01:44:26;8.80;;;3.63;;
39676;SDS011;27789;50.840;4.386;2022-10-16T01:46:55;8.88;;;4.60;;
39676;SDS011;27789;50.840;4.386;2022-10-16T01:49:23;6.80;;;3.28;;
39676;SDS011;27789;50.840;4.386;2022-10-16T01:51:52;7.72;;;2.97;;
39676;SDS011;27789;50.840;4.386;2022-10-16T01:54:20;22.45;;;8.57;;
39676;SDS011;27789;50.840;4.386;2022-10-16T01:56:53;4.20;;;2.50;;
39676;SDS011;27789;50.840;4.386;2022-10-16T01:59:21;3.63;;;1.88;;
39676;SDS011;27789;50.840;4.386;2022-10-16T02:01:52;1.85;;;1.50;;
39676;SDS011;27789;50.840;4.386;2022-10-16T02:04:27;6.97;;;1.77;;
39676;SDS011;27789;50.840;4.386;2022-10-16T02:06:56;5.22;;;2.13;;
39676;SDS011;27789;50.840;4.386;2022-10-16T02:09:22;4.30;;;1.52;;
39676;SDS011;27789;50.840;4.386;2022-10-16T02:11:48;4.72;;;2.83;;
39676;SDS011;27789;50.840;4.386;2022-10-16T02:14:18;3.67;;;1.70;;
39676;SDS011;27789;50.840;4.386;2022-10-16T02:16:45;2.17;;;1.92;;
39676;SDS011;27789;50.840;4.386;2022-10-16T02:19:12;2.53;;;1.33;;
39676;SDS011;27789;50.840;4.386;2022-10-16T02:21:41;6.82;;;1.85;;
39676;SDS011;27789;50.840;4.386;2022-10-16T02:24:20;3.88;;;2.13;;
39676;SDS011;27789;50.840;4.386;2022-10-16T02:26:53;4.30;;;1.60;;
39676;SDS011;27789;50.840;4.386;2022-10-16T02:29:25;9.05;;;2.05;;
39676;SDS011;27789;50.840;4.386;2022-10-16T02:31:53;1.77;;;1.40;;
39676;SDS011;27789;50.840;4.386;2022-10-16T02:34:22;6.05;;;2.17;;
39676;SDS011;27789;50.840;4.386;2022-10-16T02:36:50;4.45;;;1.42;;
39676;SDS011;27789;50.840;4.386;2022-10-16T02:39:17;3.85;;;1.80;;
39676;SDS011;27789;50.840;4.386;2022-10-16T02:41:44;5.20;;;1.70;;
39676;SDS011;27789;50.840;4.386;2022-10-16T02:44:10;12.52;;;3.60;;
39676;SDS011;27789;50.840;4.386;2022-10-16T02:46:36;3.38;;;1.65;;
39676;SDS011;27789;50.840;4.386;2022-10-16T02:49:02;2.55;;;1.75;;
39676;SDS011;27789;50.840;4.386;2022-10-16T02:51:27;4.07;;;1.92;;
39676;SDS011;27789;50.840;4.386;2022-10-16T02:53:53;3.75;;;1.60;;
39676;SDS011;27789;50.840;4.386;2022-10-16T02:56:19;4.63;;;1.70;;
39676;SDS011;27789;50.840;4.386;2022-10-16T02:58:45;2.53;;;1.98;;
39676;SDS011;27789;50.840;4.386;2022-10-16T03:01:11;6.38;;;1.70;;
39676;SDS011;27789;50.840;4.386;2022-10-16T03:03:37;7.50;;;2.30;;
39676;SDS011;27789;50.840;4.386;2022-10-16T03:06:03;1.98;;;1.70;;
39676;SDS011;27789;50.840;4.386;2022-10-16T03:08:29;3.92;;;1.90;;
39676;SDS011;27789;50.840;4.386;2022-10-16T03:10:55;4.45;;;2.80;;
39676;SDS011;27789;50.840;4.386;2022-10-16T03:13:20;4.53;;;2.50;;
39676;SDS011;27789;50.840;4.386;2022-10-16T03:15:46;4.43;;;1.80;;
39676;SDS011;27789;50.840;4.386;2022-10-16T03:18:12;3.42;;;1.98;;
39676;SDS011;27789;50.840;4.386;2022-10-16T03:20:37;4.32;;;2.05;;
39676;SDS011;27789;50.840;4.386;2022-10-16T03:23:03;5.28;;;2.58;;
39676;SDS011;27789;50.840;4.386;2022-10-16T03:25:29;2.60;;;1.90;;
39676;SDS011;27789;50.840;4.386;2022-10-16T03:27:54;5.43;;;2.47;;
39676;SDS011;27789;50.840;4.386;2022-10-16T03:30:20;4.47;;;1.60;;
39676;SDS011;27789;50.840;4.386;2022-10-16T03:32:45;2.45;;;2.05;;
39676;SDS011;27789;50.840;4.386;2022-10-16T03:35:11;5.05;;;2.10;;
39676;SDS011;27789;50.840;4.386;2022-10-16T03:37:37;4.38;;;1.73;;
39676;SDS011;27789;50.840;4.386;2022-10-16T03:40:03;8.98;;;2.03;;
39676;SDS011;27789;50.840;4.386;2022-10-16T03:42:29;2.42;;;2.00;;
39676;SDS011;27789;50.840;4.386;2022-10-16T03:44:55;4.82;;;1.75;;
39676;SDS011;27789;50.840;4.386;2022-10-16T03:47:21;4.22;;;2.10;;
39676;SDS011;27789;50.840;4.386;2022-10-16T03:49:48;4.85;;;1.92;;
39676;SDS011;27789;50.840;4.386;2022-10-16T03:52:14;5.40;;;2.00;;
39676;SDS011;27789;50.840;4.386;2022-10-16T03:54:39;5.15;;;1.92;;
39676;SDS011;27789;50.840;4.386;2022-10-16T03:57:05;6.63;;;1.77;;
39676;SDS011;27789;50.840;4.386;2022-10-16T03:59:31;2.95;;;1.50;;
39676;SDS011;27789;50.840;4.386;2022-10-16T04:01:56;3.00;;;1.98;;
39676;SDS011;27789;50.840;4.386;2022-10-16T04:04:22;5.97;;;1.40;;
39676;SDS011;27789;50.840;4.386;2022-10-16T04:06:47;2.97;;;1.90;;
39676;SDS011;27789;50.840;4.386;2022-10-16T04:09:13;3.83;;;2.38;;
39676;SDS011;27789;50.840;4.386;2022-10-16T04:11:39;3.58;;;1.80;;
39676;SDS011;27789;50.840;4.386;2022-10-16T04:14:04;5.43;;;2.22;;
39676;SDS011;27789;50.840;4.386;2022-10-16T04:16:30;3.55;;;1.80;;
39676;SDS011;27789;50.840;4.386;2022-10-16T04:18:55;4.07;;;1.98;;
39676;SDS011;27789;50.840;4.386;2022-10-16T04:21:21;6.13;;;2.05;;
39676;SDS011;27789;50.840;4.386;2022-10-16T04:23:47;4.57;;;1.67;;
39676;SDS011;27789;50.840;4.386;2022-10-16T04:26:14;7.25;;;2.40;;
39676;SDS011;27789;50.840;4.386;2022-10-16T04:28:40;3.25;;;1.52;;
39676;SDS011;27789;50.840;4.386;2022-10-16T04:31:06;6.90;;;2.00;;
39676;SDS011;27789;50.840;4.386;2022-10-16T04:33:32;6.65;;;2.13;;
39676;SDS011;27789;50.840;4.386;2022-10-16T04:35:58;5.05;;;2.10;;
39676;SDS011;27789;50.840;4.386;2022-10-16T04:38:25;5.70;;;2.00;;
39676;SDS011;27789;50.840;4.386;2022-10-16T04:40:51;7.00;;;1.77;;
39676;SDS011;27789;50.840;4.386;2022-10-16T04:43:17;2.50;;;1.70;;
39676;SDS011;27789;50.840;4.386;2022-10-16T04:45:43;5.90;;;2.30;;
39676;SDS011;27789;50.840;4.386;2022-10-16T04:48:09;3.13;;;1.60;;
39676;SDS011;27789;50.840;4.386;2022-10-16T04:50:34;1.85;;;1.75;;
39676;SDS011;27789;50.840;4.386;2022-10-16T04:53:00;7.18;;;2.78;;
39676;SDS011;27789;50.840;4.386;2022-10-16T04:55:25;5.90;;;1.92;;
39676;SDS011;27789;50.840;4.386;2022-10-16T04:57:51;3.22;;;1.92;;
39676;SDS011;27789;50.840;4.386;2022-10-16T05:00:17;2.70;;;1.75;;
39676;SDS011;27789;50.840;4.386;2022-10-16T05:02:43;3.78;;;1.92;;
39676;SDS011;27789;50.840;4.386;2022-10-16T05:05:08;5.03;;;2.03;;
39676;SDS011;27789;50.840;4.386;2022-10-16T05:07:34;4.03;;;1.55;;
39676;SDS011;27789;50.840;4.386;2022-10-16T05:09:59;4.45;;;2.25;;
39676;SDS011;27789;50.840;4.386;2022-10-16T05:12:25;5.38;;;2.03;;
39676;SDS011;27789;50.840;4.386;2022-10-16T05:14:50;6.18;;;2.40;;
39676;SDS011;27789;50.840;4.386;2022-10-16T05:17:16;2.35;;;2.13;;
39676;SDS011;27789;50.840;4.386;2022-10-16T05:19:42;10.50;;;2.47;;
39676;SDS011;27789;50.840;4.386;2022-10-16T05:22:07;3.92;;;2.28;;
39676;SDS011;27789;50.840;4.386;2022-10-16T05:24:33;6.53;;;2.90;;
39676;SDS011;27789;50.840;4.386;2022-10-16T05:26:58;7.78;;;2.38;;
39676;SDS011;27789;50.840;4.386;2022-10-16T05:29:24;5.63;;;2.45;;
39676;SDS011;27789;50.840;4.386;2022-10-16T05:31:52;3.45;;;2.35;;
39676;SDS011;27789;50.840;4.386;2022-10-16T05:34:19;8.68;;;2.38;;
39676;SDS011;27789;50.840;4.386;2022-10-16T05:36:45;2.50;;;2.00;;
39676;SDS011;27789;50.840;4.386;2022-10-16T05:39:11;4.20;;;2.65;;
39676;SDS011;27789;50.840;4.386;2022-10-16T05:41:36;4.20;;;2.20;;
39676;SDS011;27789;50.840;4.386;2022-10-16T05:44:05;5.28;;;2.50;;
39676;SDS011;27789;50.840;4.386;2022-10-16T05:46:31;3.17;;;2.50;;
39676;SDS011;27789;50.840;4.386;2022-10-16T05:48:57;6.35;;;2.20;;
39676;SDS011;27789;50.840;4.386;2022-10-16T05:51:23;4.47;;;2.30;;
39676;SDS011;27789;50.840;4.386;2022-10-16T05:53:48;5.65;;;2.63;;
39676;SDS011;27789;50.840;4.386;2022-10-16T05:56:14;2.97;;;2.10;;
39676;SDS011;27789;50.840;4.386;2022-10-16T05:58:40;4.00;;;1.90;;
39676;SDS011;27789;50.840;4.386;2022-10-16T06:01:07;5.57;;;2.53;;
39676;SDS011;27789;50.840;4.386;2022-10-16T06:03:36;7.95;;;3.65;;
39676;SDS011;27789;50.840;4.386;2022-10-16T06:08:40;3.45;;;2.28;;
39676;SDS011;27789;50.840;4.386;2022-10-16T06:11:07;3.40;;;2.40;;
39676;SDS011;27789;50.840;4.386;2022-10-16T06:13:35;5.60;;;2.20;;
39676;SDS011;27789;50.840;4.386;2022-10-16T06:16:01;9.10;;;2.70;;
39676;SDS011;27789;50.840;4.386;2022-10-16T06:18:28;8.63;;;2.28;;
39676;SDS011;27789;50.840;4.386;2022-10-16T06:20:55;5.05;;;2.35;;
39676;SDS011;27789;50.840;4.386;2022-10-16T06:23:21;3.90;;;2.78;;
39676;SDS011;27789;50.840;4.386;2022-10-16T06:25:47;4.10;;;2.33;;
39676;SDS011;27789;50.840;4.386;2022-10-16T06:28:15;2.22;;;2.03;;
39676;SDS011;27789;50.840;4.386;2022-10-16T06:30:41;5.13;;;2.35;;
39676;SDS011;27789;50.840;4.386;2022-10-16T06:33:11;6.95;;;2.33;;
39676;SDS011;27789;50.840;4.386;2022-10-16T06:35:37;2.95;;;2.05;;
39676;SDS011;27789;50.840;4.386;2022-10-16T06:38:02;4.05;;;2.63;;
39676;SDS011;27789;50.840;4.386;2022-10-16T06:40:28;3.65;;;2.60;;
39676;SDS011;27789;50.840;4.386;2022-10-16T06:42:56;4.25;;;2.20;;
39676;SDS011;27789;50.840;4.386;2022-10-16T06:45:22;6.80;;;2.30;;
39676;SDS011;27789;50.840;4.386;2022-10-16T06:47:48;3.50;;;2.45;;
39676;SDS011;27789;50.840;4.386;2022-10-16T06:50:13;4.15;;;2.10;;
39676;SDS011;27789;50.840;4.386;2022-10-16T06:52:39;5.78;;;2.75;;
39676;SDS011;27789;50.840;4.386;2022-10-16T06:55:04;3.67;;;2.28;;
39676;SDS011;27789;50.840;4.386;2022-10-16T06:57:30;5.32;;;2.13;;
39676;SDS011;27789;50.840;4.386;2022-10-16T06:59:56;2.58;;;2.08;;
39676;SDS011;27789;50.840;4.386;2022-10-16T07:02:21;5.68;;;3.42;;
39676;SDS011;27789;50.840;4.386;2022-10-16T07:04:47;2.50;;;2.08;;
39676;SDS011;27789;50.840;4.386;2022-10-16T07:07:13;3.30;;;2.20;;
39676;SDS011;27789;50.840;4.386;2022-10-16T07:09:38;8.35;;;3.05;;
39676;SDS011;27789;50.840;4.386;2022-10-16T07:12:05;4.75;;;2.25;;
39676;SDS011;27789;50.840;4.386;2022-10-16T07:14:30;6.00;;;2.38;;
39676;SDS011;27789;50.840;4.386;2022-10-16T07:16:56;4.43;;;2.03;;
39676;SDS011;27789;50.840;4.386;2022-10-16T07:19:22;6.38;;;2.53;;
39676;SDS011;27789;50.840;4.386;2022-10-16T07:21:47;7.55;;;2.60;;
39676;SDS011;27789;50.840;4.386;2022-10-16T07:24:15;5.78;;;2.13;;
39676;SDS011;27789;50.840;4.386;2022-10-16T07:26:42;6.35;;;2.47;;
39676;SDS011;27789;50.840;4.386;2022-10-16T07:29:15;7.50;;;2.67;;
39676;SDS011;27789;50.840;4.386;2022-10-16T07:31:43;6.97;;;2.45;;
39676;SDS011;27789;50.840;4.386;2022-10-16T07:34:09;8.40;;;2.55;;
39676;SDS011;27789;50.840;4.386;2022-10-16T07:36:36;6.75;;;2.45;;
39676;SDS011;27789;50.840;4.386;2022-10-16T07:39:02;3.22;;;2.03;;
39676;SDS011;27789;50.840;4.386;2022-10-16T07:41:28;5.72;;;2.25;;
39676;SDS011;27789;50.840;4.386;2022-10-16T07:43:54;4.60;;;2.40;;
39676;SDS011;27789;50.840;4.386;2022-10-16T07:46:22;4.45;;;2.65;;
39676;SDS011;27789;50.840;4.386;2022-10-16T07:48:48;7.70;;;2.55;;
39676;SDS011;27789;50.840;4.386;2022-10-16T07:51:15;5.63;;;2.53;;
39676;SDS011;27789;50.840;4.386;2022-10-16T07:53:42;5.65;;;2.13;;
39676;SDS011;27789;50.840;4.386;2022-10-16T07:56:12;6.25;;;2.15;;
39676;SDS011;27789;50.840;4.386;2022-10-16T07:58:37;6.95;;;2.92;;
39676;SDS011;27789;50.840;4.386;2022-10-16T08:01:04;5.78;;;2.30;;
39676;SDS011;27789;50.840;4.386;2022-10-16T08:03:34;3.55;;;2.40;;
39676;SDS011;27789;50.840;4.386;2022-10-16T08:05:59;7.40;;;3.33;;
39676;SDS011;27789;50.840;4.386;2022-10-16T08:08:26;5.10;;;2.88;;
39676;SDS011;27789;50.840;4.386;2022-10-16T08:10:52;4.30;;;2.05;;
39676;SDS011;27789;50.840;4.386;2022-10-16T08:13:18;5.72;;;2.50;;
39676;SDS011;27789;50.840;4.386;2022-10-16T08:15:43;6.93;;;2.20;;
39676;SDS011;27789;50.840;4.386;2022-10-16T08:18:11;4.28;;;2.28;;
39676;SDS011;27789;50.840;4.386;2022-10-16T08:20:38;4.28;;;2.38;;
39676;SDS011;27789;50.840;4.386;2022-10-16T08:23:04;7.32;;;2.30;;
39676;SDS011;27789;50.840;4.386;2022-10-16T08:25:30;3.83;;;2.28;;
39676;SDS011;27789;50.840;4.386;2022-10-16T08:27:56;7.50;;;2.35;;
39676;SDS011;27789;50.840;4.386;2022-10-16T08:30:22;10.40;;;2.53;;
39676;SDS011;27789;50.840;4.386;2022-10-16T08:32:49;5.43;;;2.40;;
39676;SDS011;27789;50.840;4.386;2022-10-16T08:35:15;3.13;;;1.92;;
39676;SDS011;27789;50.840;4.386;2022-10-16T08:37:40;7.65;;;2.30;;
39676;SDS011;27789;50.840;4.386;2022-10-16T08:40:07;5.05;;;1.98;;
39676;SDS011;27789;50.840;4.386;2022-10-16T08:45:27;4.15;;;2.03;;
39676;SDS011;27789;50.840;4.386;2022-10-16T08:50:35;3.58;;;1.90;;
39676;SDS011;27789;50.840;4.386;2022-10-16T08:53:03;8.55;;;2.08;;
39676;SDS011;27789;50.840;4.386;2022-10-16T08:55:31;7.82;;;1.83;;
39676;SDS011;27789;50.840;4.386;2022-10-16T08:58:13;7.68;;;2.25;;
39676;SDS011;27789;50.840;4.386;2022-10-16T09:00:40;6.00;;;1.88;;
39676;SDS011;27789;50.840;4.386;2022-10-16T09:13:49;6.30;;;1.95;;
39676;SDS011;27789;50.840;4.386;2022-10-16T09:16:20;2.40;;;1.48;;
39676;SDS011;27789;50.840;4.386;2022-10-16T09:21:41;9.30;;;3.78;;
39676;SDS011;27789;50.840;4.386;2022-10-16T09:24:13;6.20;;;1.80;;
39676;SDS011;27789;50.840;4.386;2022-10-16T09:26:41;4.57;;;1.70;;
39676;SDS011;27789;50.840;4.386;2022-10-16T09:29:10;5.05;;;1.35;;
39676;SDS011;27789;50.840;4.386;2022-10-16T09:31:37;6.55;;;1.77;;
39676;SDS011;27789;50.840;4.386;2022-10-16T09:34:03;4.50;;;1.38;;
39676;SDS011;27789;50.840;4.386;2022-10-16T09:36:31;7.90;;;2.15;;
39676;SDS011;27789;50.840;4.386;2022-10-16T09:39:08;3.00;;;1.70;;
39676;SDS011;27789;50.840;4.386;2022-10-16T09:41:36;4.85;;;1.58;;
39676;SDS011;27789;50.840;4.386;2022-10-16T09:44:06;3.42;;;1.90;;
39676;SDS011;27789;50.840;4.386;2022-10-16T09:47:00;2.45;;;1.48;;
39676;SDS011;27789;50.840;4.386;2022-10-16T09:49:27;7.18;;;1.73;;
39676;SDS011;27789;50.840;4.386;2022-10-16T09:57:18;4.50;;;1.40;;
39676;SDS011;27789;50.840;4.386;2022-10-16T09:59:55;7.70;;;1.40;;
39676;SDS011;27789;50.840;4.386;2022-10-16T10:05:01;8.90;;;2.28;;
39676;SDS011;27789;50.840;4.386;2022-10-16T10:07:33;2.78;;;1.30;;
39676;SDS011;27789;50.840;4.386;2022-10-16T10:10:05;4.05;;;1.42;;
39676;SDS011;27789;50.840;4.386;2022-10-16T10:12:44;3.90;;;1.10;;
39676;SDS011;27789;50.840;4.386;2022-10-16T10:15:11;4.95;;;1.63;;
39676;SDS011;27789;50.840;4.386;2022-10-16T10:20:26;4.55;;;1.42;;
39676;SDS011;27789;50.840;4.386;2022-10-16T10:22:59;6.13;;;1.52;;
39676;SDS011;27789;50.840;4.386;2022-10-16T10:25:28;3.38;;;1.40;;
39676;SDS011;27789;50.840;4.386;2022-10-16T10:33:47;2.55;;;1.35;;
39676;SDS011;27789;50.840;4.386;2022-10-16T11:08:44;4.78;;;2.00;;
39676;SDS011;27789;50.840;4.386;2022-10-16T11:13:56;3.83;;;1.55;;
39676;SDS011;27789;50.840;4.386;2022-10-16T11:16:37;4.50;;;1.27;;
39676;SDS011;27789;50.840;4.386;2022-10-16T11:21:53;3.03;;;1.20;;
39676;SDS011;27789;50.840;4.386;2022-10-16T11:27:15;3.13;;;1.20;;
39676;SDS011;27789;50.840;4.386;2022-10-16T11:29:47;4.15;;;1.10;;
39676;SDS011;27789;50.840;4.386;2022-10-16T11:32:20;3.60;;;0.98;;
39676;SDS011;27789;50.840;4.386;2022-10-16T11:34:55;4.55;;;0.82;;
39676;SDS011;27789;50.840;4.386;2022-10-16T11:37:26;5.47;;;1.30;;
39676;SDS011;27789;50.840;4.386;2022-10-16T11:39:57;13.13;;;1.55;;
39676;SDS011;27789;50.840;4.386;2022-10-16T11:42:37;3.42;;;1.20;;
39676;SDS011;27789;50.840;4.386;2022-10-16T11:50:53;2.78;;;0.88;;
39676;SDS011;27789;50.840;4.386;2022-10-16T11:55:47;4.18;;;0.93;;
39676;SDS011;27789;50.840;4.386;2022-10-16T11:58:19;1.67;;;0.88;;
39676;SDS011;27789;50.840;4.386;2022-10-16T12:00:58;4.07;;;1.05;;
39676;SDS011;27789;50.840;4.386;2022-10-16T12:03:35;5.38;;;1.60;;
39676;SDS011;27789;50.840;4.386;2022-10-16T12:08:58;5.90;;;1.60;;
39676;SDS011;27789;50.840;4.386;2022-10-16T12:14:04;3.22;;;1.23;;
39676;SDS011;27789;50.840;4.386;2022-10-16T12:16:33;3.83;;;1.20;;
39676;SDS011;27789;50.840;4.386;2022-10-16T12:21:40;5.13;;;1.17;;
39676;SDS011;27789;50.840;4.386;2022-10-16T12:24:18;3.78;;;1.70;;
39676;SDS011;27789;50.840;4.386;2022-10-16T12:26:56;3.15;;;1.05;;
39676;SDS011;27789;50.840;4.386;2022-10-16T12:31:59;4.88;;;1.20;;
39676;SDS011;27789;50.840;4.386;2022-10-16T12:37:06;1.38;;;1.27;;
39676;SDS011;27789;50.840;4.386;2022-10-16T12:39:56;2.92;;;0.85;;
39676;SDS011;27789;50.840;4.386;2022-10-16T12:44:51;6.40;;;1.13;;
39676;SDS011;27789;50.840;4.386;2022-10-16T12:50:00;1.90;;;0.77;;
39676;SDS011;27789;50.840;4.386;2022-10-16T12:55:01;3.38;;;0.88;;
39676;SDS011;27789;50.840;4.386;2022-10-16T13:18:49;3.65;;;1.00;;
39676;SDS011;27789;50.840;4.386;2022-10-16T13:23:54;6.72;;;2.03;;
39676;SDS011;27789;50.840;4.386;2022-10-16T13:29:08;6.68;;;1.90;;
39676;SDS011;27789;50.840;4.386;2022-10-16T13:31:36;4.28;;;1.45;;
39676;SDS011;27789;50.840;4.386;2022-10-16T13:34:04;7.22;;;2.20;;
39676;SDS011;27789;50.840;4.386;2022-10-16T13:36:35;4.07;;;1.80;;
39676;SDS011;27789;50.840;4.386;2022-10-16T13:39:13;5.60;;;1.77;;
39676;SDS011;27789;50.840;4.386;2022-10-16T13:44:28;4.22;;;1.58;;
39676;SDS011;27789;50.840;4.386;2022-10-16T13:47:00;2.20;;;1.30;;
39676;SDS011;27789;50.840;4.386;2022-10-16T13:49:27;2.70;;;1.17;;
39676;SDS011;27789;50.840;4.386;2022-10-16T13:51:56;2.90;;;1.55;;
39676;SDS011;27789;50.840;4.386;2022-10-16T13:54:25;3.40;;;1.90;;
39676;SDS011;27789;50.840;4.386;2022-10-16T13:56:53;3.40;;;1.25;;
39676;SDS011;27789;50.840;4.386;2022-10-16T14:01:48;4.05;;;1.25;;
39676;SDS011;27789;50.840;4.386;2022-10-16T14:04:15;1.33;;;1.02;;
39676;SDS011;27789;50.840;4.386;2022-10-16T14:06:42;2.75;;;1.40;;
39676;SDS011;27789;50.840;4.386;2022-10-16T14:11:50;6.07;;;1.23;;
39676;SDS011;27789;50.840;4.386;2022-10-16T14:14:21;6.82;;;1.13;;
39676;SDS011;27789;50.840;4.386;2022-10-16T14:16:48;4.47;;;0.90;;
39676;SDS011;27789;50.840;4.386;2022-10-16T14:21:52;3.67;;;1.20;;
39676;SDS011;27789;50.840;4.386;2022-10-16T14:26:54;4.93;;;1.38;;
39676;SDS011;27789;50.840;4.386;2022-10-16T14:29:21;4.05;;;1.20;;
39676;SDS011;27789;50.840;4.386;2022-10-16T14:34:29;4.55;;;1.30;;
39676;SDS011;27789;50.840;4.386;2022-10-16T14:36:58;4.30;;;1.10;;
39676;SDS011;27789;50.840;4.386;2022-10-16T14:39:27;3.92;;;1.30;;
39676;SDS011;27789;50.840;4.386;2022-10-16T14:41:54;7.80;;;1.42;;
39676;SDS011;27789;50.840;4.386;2022-10-16T14:44:22;6.55;;;1.92;;
39676;SDS011;27789;50.840;4.386;2022-10-16T14:46:57;4.53;;;1.45;;
39676;SDS011;27789;50.840;4.386;2022-10-16T14:49:32;3.75;;;1.15;;
39676;SDS011;27789;50.840;4.386;2022-10-16T14:51:57;5.03;;;1.42;;
39676;SDS011;27789;50.840;4.386;2022-10-16T14:54:23;4.22;;;1.50;;
39676;SDS011;27789;50.840;4.386;2022-10-16T14:59:28;8.48;;;3.08;;
39676;SDS011;27789;50.840;4.386;2022-10-16T15:01:56;5.55;;;2.75;;
39676;SDS011;27789;50.840;4.386;2022-10-16T15:04:22;6.38;;;2.25;;
39676;SDS011;27789;50.840;4.386;2022-10-16T15:06:48;4.95;;;2.05;;
39676;SDS011;27789;50.840;4.386;2022-10-16T15:09:14;10.10;;;3.88;;
39676;SDS011;27789;50.840;4.386;2022-10-16T15:11:39;7.22;;;2.00;;
39676;SDS011;27789;50.840;4.386;2022-10-16T15:14:06;5.45;;;1.98;;
39676;SDS011;27789;50.840;4.386;2022-10-16T15:16:33;4.28;;;2.10;;
39676;SDS011;27789;50.840;4.386;2022-10-16T15:18:59;6.97;;;2.85;;
39676;SDS011;27789;50.840;4.386;2022-10-16T15:21:26;4.53;;;2.30;;
39676;SDS011;27789;50.840;4.386;2022-10-16T15:23:54;4.35;;;2.30;;
39676;SDS011;27789;50.840;4.386;2022-10-16T15:26:21;6.63;;;2.22;;
39676;SDS011;27789;50.840;4.386;2022-10-16T15:28:47;7.10;;;2.63;;
39676;SDS011;27789;50.840;4.386;2022-10-16T15:31:13;3.28;;;1.88;;
39676;SDS011;27789;50.840;4.386;2022-10-16T15:33:39;3.55;;;2.22;;
39676;SDS011;27789;50.840;4.386;2022-10-16T15:36:04;6.07;;;1.77;;
39676;SDS011;27789;50.840;4.386;2022-10-16T15:38:30;3.78;;;1.80;;
39676;SDS011;27789;50.840;4.386;2022-10-16T15:40:56;7.55;;;2.13;;
39676;SDS011;27789;50.840;4.386;2022-10-16T15:43:22;6.10;;;2.35;;
39676;SDS011;27789;50.840;4.386;2022-10-16T15:45:56;7.10;;;2.85;;
39676;SDS011;27789;50.840;4.386;2022-10-16T15:48:25;7.78;;;2.45;;
39676;SDS011;27789;50.840;4.386;2022-10-16T15:50:51;5.80;;;1.75;;
39676;SDS011;27789;50.840;4.386;2022-10-16T15:53:16;4.60;;;1.58;;
39676;SDS011;27789;50.840;4.386;2022-10-16T15:55:42;5.00;;;1.60;;
39676;SDS011;27789;50.840;4.386;2022-10-16T15:58:07;5.72;;;2.15;;
39676;SDS011;27789;50.840;4.386;2022-10-16T16:00:33;8.20;;;2.08;;
39676;SDS011;27789;50.840;4.386;2022-10-16T16:02:58;5.35;;;1.90;;
39676;SDS011;27789;50.840;4.386;2022-10-16T16:05:24;6.18;;;1.73;;
39676;SDS011;27789;50.840;4.386;2022-10-16T16:07:50;5.32;;;1.80;;
39676;SDS011;27789;50.840;4.386;2022-10-16T16:10:16;3.63;;;2.00;;
39676;SDS011;27789;50.840;4.386;2022-10-16T16:12:42;3.65;;;2.50;;
39676;SDS011;27789;50.840;4.386;2022-10-16T16:15:14;6.47;;;1.88;;
39676;SDS011;27789;50.840;4.386;2022-10-16T16:17:39;4.70;;;1.67;;
39676;SDS011;27789;50.840;4.386;2022-10-16T16:20:05;7.22;;;2.50;;
39676;SDS011;27789;50.840;4.386;2022-10-16T16:22:32;4.43;;;2.53;;
39676;SDS011;27789;50.840;4.386;2022-10-16T16:24:57;8.13;;;2.65;;
39676;SDS011;27789;50.840;4.386;2022-10-16T16:27:23;6.07;;;3.05;;
39676;SDS011;27789;50.840;4.386;2022-10-16T16:29:49;4.90;;;2.05;;
39676;SDS011;27789;50.840;4.386;2022-10-16T16:32:15;5.07;;;2.67;;
39676;SDS011;27789;50.840;4.386;2022-10-16T16:34:41;4.95;;;2.40;;
39676;SDS011;27789;50.840;4.386;2022-10-16T16:37:06;6.00;;;2.80;;
39676;SDS011;27789;50.840;4.386;2022-10-16T16:39:32;3.83;;;2.53;;
39676;SDS011;27789;50.840;4.386;2022-10-16T16:41:57;4.70;;;3.10;;
39676;SDS011;27789;50.840;4.386;2022-10-16T16:44:23;7.88;;;3.50;;
39676;SDS011;27789;50.840;4.386;2022-10-16T16:46:49;9.02;;;3.17;;
39676;SDS011;27789;50.840;4.386;2022-10-16T16:49:15;4.95;;;3.22;;
39676;SDS011;27789;50.840;4.386;2022-10-16T16:51:41;7.10;;;2.40;;
39676;SDS011;27789;50.840;4.386;2022-10-16T16:54:07;6.53;;;3.30;;
39676;SDS011;27789;50.840;4.386;2022-10-16T16:56:33;4.07;;;2.75;;
39676;SDS011;27789;50.840;4.386;2022-10-16T16:58:58;7.85;;;2.30;;
39676;SDS011;27789;50.840;4.386;2022-10-16T17:01:25;9.13;;;4.50;;
39676;SDS011;27789;50.840;4.386;2022-10-16T17:03:52;3.33;;;2.63;;
39676;SDS011;27789;50.840;4.386;2022-10-16T17:06:20;19.33;;;5.13;;
39676;SDS011;27789;50.840;4.386;2022-10-16T17:08:48;17.60;;;5.85;;
39676;SDS011;27789;50.840;4.386;2022-10-16T17:11:19;12.30;;;4.97;;
39676;SDS011;27789;50.840;4.386;2022-10-16T17:13:46;13.88;;;4.18;;
39676;SDS011;27789;50.840;4.386;2022-10-16T17:16:12;17.70;;;4.57;;
39676;SDS011;27789;50.840;4.386;2022-10-16T17:18:38;15.10;;;5.60;;
39676;SDS011;27789;50.840;4.386;2022-10-16T17:21:05;16.25;;;6.22;;
39676;SDS011;27789;50.840;4.386;2022-10-16T17:23:33;20.80;;;7.13;;
39676;SDS011;27789;50.840;4.386;2022-10-16T17:26:03;11.73;;;5.93;;
39676;SDS011;27789;50.840;4.386;2022-10-16T17:28:37;12.80;;;6.00;;
39676;SDS011;27789;50.840;4.386;2022-10-16T17:31:10;10.27;;;5.85;;
39676;SDS011;27789;50.840;4.386;2022-10-16T17:33:41;10.70;;;5.10;;
39676;SDS011;27789;50.840;4.386;2022-10-16T17:36:07;11.27;;;5.03;;
39676;SDS011;27789;50.840;4.386;2022-10-16T17:38:34;7.93;;;5.18;;
39676;SDS011;27789;50.840;4.386;2022-10-16T17:43:41;13.45;;;6.15;;
39676;SDS011;27789;50.840;4.386;2022-10-16T17:46:07;11.50;;;5.75;;
39676;SDS011;27789;50.840;4.386;2022-10-16T17:48:41;8.85;;;5.63;;
39676;SDS011;27789;50.840;4.386;2022-10-16T17:51:10;9.35;;;6.03;;
39676;SDS011;27789;50.840;4.386;2022-10-16T17:53:38;11.38;;;5.43;;
39676;SDS011;27789;50.840;4.386;2022-10-16T17:56:08;9.75;;;5.57;;
39676;SDS011;27789;50.840;4.386;2022-10-16T17:58:35;11.68;;;6.38;;
39676;SDS011;27789;50.840;4.386;2022-10-16T18:01:02;11.80;;;6.80;;
39676;SDS011;27789;50.840;4.386;2022-10-16T18:03:39;11.25;;;6.53;;
39676;SDS011;27789;50.840;4.386;2022-10-16T18:06:05;13.07;;;6.65;;
39676;SDS011;27789;50.840;4.386;2022-10-16T18:08:30;14.63;;;6.95;;
39676;SDS011;27789;50.840;4.386;2022-10-16T18:10:56;12.25;;;7.28;;
39676;SDS011;27789;50.840;4.386;2022-10-16T18:13:22;13.43;;;7.60;;
39676;SDS011;27789;50.840;4.386;2022-10-16T18:15:57;14.02;;;8.73;;
39676;SDS011;27789;50.840;4.386;2022-10-16T18:18:24;13.70;;;8.95;;
39676;SDS011;27789;50.840;4.386;2022-10-16T18:20:56;11.90;;;9.18;;
39676;SDS011;27789;50.840;4.386;2022-10-16T18:23:26;14.10;;;9.52;;
39676;SDS011;27789;50.840;4.386;2022-10-16T18:25:52;15.60;;;9.95;;
39676;SDS011;27789;50.840;4.386;2022-10-16T18:28:18;23.00;;;11.23;;
39676;SDS011;27789;50.840;4.386;2022-10-16T18:30:44;14.15;;;10.27;;
39676;SDS011;27789;50.840;4.386;2022-10-16T18:33:09;17.77;;;10.63;;
39676;SDS011;27789;50.840;4.386;2022-10-16T18:35:35;16.80;;;10.77;;
39676;SDS011;27789;50.840;4.386;2022-10-16T18:38:01;14.95;;;9.63;;
39676;SDS011;27789;50.840;4.386;2022-10-16T18:40:27;18.13;;;10.15;;
39676;SDS011;27789;50.840;4.386;2022-10-16T18:42:53;14.45;;;9.30;;
39676;SDS011;27789;50.840;4.386;2022-10-16T18:45:18;15.82;;;9.88;;
39676;SDS011;27789;50.840;4.386;2022-10-16T18:47:44;20.48;;;10.00;;
39676;SDS011;27789;50.840;4.386;2022-10-16T18:50:10;12.95;;;9.32;;
39676;SDS011;27789;50.840;4.386;2022-10-16T18:52:42;16.77;;;9.02;;
39676;SDS011;27789;50.840;4.386;2022-10-16T18:55:11;11.80;;;8.50;;